Time;durP1;ratioP1;P1;durP2;ratioP2;P2;SDS_P1;SDS_P2;PMS_P1;PMS_P2;Temp;Humidity;BMP_temperature;BMP_pressure;BME280_temperature;BME280_humidity;BME280_pressure;Samples;Min_cycle;Max_cycle;Signal;HPM_P1;HPM_P2
2023/10/12 00:02:28;;;;;;;15.63;5.30;;;;;;;;;;5014583;28;20179;-65
2023/10/12 00:05:00;;;;;;;14.07;6.10;;;;;;;;;;5012265;28;20176;-64
2023/10/12 00:07:38;;;;;;;11.50;5.60;;;;;;;;;;5014301;28;20271;-65
2023/10/12 00:12:44;;;;;;;11.83;5.13;;;;;;;;;;5014719;28;20629;-64
2023/10/12 00:15:23;;;;;;;10.37;5.53;;;;;;;;;;5014537;28;20264;-64
2023/10/12 00:18:08;;;;;;;10.80;4.87;;;;;;;;;;5014716;28;20298;-64
2023/10/12 00:20:37;;;;;;;14.60;5.80;;;;;;;;;;5012728;28;20172;-65
2023/10/12 00:23:10;;;;;;;11.47;5.47;;;;;;;;;;5012141;28;20199;-64
2023/10/12 00:25:46;;;;;;;10.77;5.27;;;;;;;;;;5013474;28;20194;-65
2023/10/12 00:28:17;;;;;;;11.63;5.60;;;;;;;;;;5012419;28;20229;-65
2023/10/12 00:30:43;;;;;;;15.40;5.47;;;;;;;;;;5013554;28;20175;-64
2023/10/12 00:33:10;;;;;;;13.23;5.53;;;;;;;;;;5011963;28;20194;-64
2023/10/12 00:35:39;;;;;;;12.23;5.23;;;;;;;;;;5013675;28;20668;-65
2023/10/12 00:38:18;;;;;;;11.07;6.00;;;;;;;;;;5013149;28;20195;-65
2023/10/12 00:40:51;;;;;;;17.13;5.80;;;;;;;;;;5013980;28;20571;-65
2023/10/12 00:43:17;;;;;;;10.13;5.10;;;;;;;;;;5013287;28;20199;-65
2023/10/12 00:45:43;;;;;;;10.57;5.30;;;;;;;;;;5013537;28;20247;-65
2023/10/12 00:48:15;;;;;;;14.90;5.67;;;;;;;;;;5012232;28;20285;-65
2023/10/12 00:50:44;;;;;;;10.20;5.80;;;;;;;;;;5013838;28;20168;-65
2023/10/12 00:53:22;;;;;;;9.53;5.80;;;;;;;;;;5013243;28;20207;-65
2023/10/12 00:55:48;;;;;;;12.27;5.80;;;;;;;;;;5013586;28;20178;-64
2023/10/12 00:58:17;;;;;;;11.27;6.20;;;;;;;;;;5016414;28;20199;-65
2023/10/12 01:00:46;;;;;;;9.77;5.53;;;;;;;;;;5016655;28;20182;-65
2023/10/12 01:08:44;;;;;;;11.00;5.37;;;;;;;;;;5016626;28;20704;-65
2023/10/12 01:11:18;;;;;;;11.37;6.23;;;;;;;;;;5015125;28;20176;-65
2023/10/12 01:13:45;;;;;;;14.33;5.50;;;;;;;;;;5016218;28;20527;-65
2023/10/12 01:16:23;;;;;;;11.47;6.00;;;;;;;;;;5016260;28;20172;-65
2023/10/12 01:18:55;;;;;;;12.50;5.67;;;;;;;;;;5014691;28;20339;-65
2023/10/12 01:21:21;;;;;;;13.73;6.03;;;;;;;;;;5016633;28;20164;-65
2023/10/12 01:23:51;;;;;;;10.10;5.50;;;;;;;;;;5014643;28;20625;-64
2023/10/12 01:26:18;;;;;;;11.07;6.60;;;;;;;;;;5017276;28;20592;-65
2023/10/12 01:28:48;;;;;;;10.13;6.50;;;;;;;;;;5015913;28;20274;-63
2023/10/12 01:31:15;;;;;;;17.70;7.70;;;;;;;;;;5015668;28;20174;-64
2023/10/12 01:33:43;;;;;;;15.67;7.13;;;;;;;;;;5016025;28;20168;-65
2023/10/12 01:36:09;;;;;;;11.23;7.03;;;;;;;;;;5016097;28;20172;-64
2023/10/12 01:38:37;;;;;;;10.73;7.03;;;;;;;;;;5015490;28;20211;-65
2023/10/12 01:41:12;;;;;;;14.07;7.43;;;;;;;;;;5015894;28;20180;-65
2023/10/12 01:43:38;;;;;;;12.10;7.60;;;;;;;;;;5014110;28;20669;-65
2023/10/12 01:46:08;;;;;;;13.53;7.67;;;;;;;;;;5014874;28;20295;-65
2023/10/12 01:48:34;;;;;;;13.73;9.00;;;;;;;;;;5015895;28;20202;-65
2023/10/12 01:51:16;;;;;;;19.37;10.57;;;;;;;;;;5014206;28;20190;-65
2023/10/12 01:53:42;;;;;;;22.57;11.70;;;;;;;;;;5014253;28;20190;-65
2023/10/12 01:56:11;;;;;;;25.93;13.20;;;;;;;;;;5016384;28;20246;-65
2023/10/12 01:58:43;;;;;;;25.67;14.13;;;;;;;;;;5015047;28;20210;-65
2023/10/12 02:01:18;;;;;;;18.13;13.30;;;;;;;;;;5016871;28;20164;-65
2023/10/12 02:03:44;;;;;;;24.77;14.00;;;;;;;;;;5014450;28;20741;-64
2023/10/12 02:06:16;;;;;;;26.00;15.57;;;;;;;;;;5015432;28;20188;-66
2023/10/12 02:08:46;;;;;;;26.87;16.87;;;;;;;;;;5014432;28;20223;-65
2023/10/12 02:13:47;;;;;;;28.93;17.67;;;;;;;;;;5015284;28;20182;-64
2023/10/12 02:16:13;;;;;;;28.50;20.03;;;;;;;;;;5015692;28;20175;-65
2023/10/12 02:18:39;;;;;;;28.07;20.03;;;;;;;;;;5015159;28;20207;-65
2023/10/12 02:31:46;;;;;;;28.47;20.63;;;;;;;;;;5015537;28;20645;-64
2023/10/12 02:34:18;;;;;;;29.33;21.10;;;;;;;;;;5014338;28;20266;-65
2023/10/12 02:39:30;;;;;;;29.80;20.00;;;;;;;;;;5014323;28;20170;-64
2023/10/12 02:47:17;;;;;;;29.83;19.57;;;;;;;;;;5013706;28;20266;-64
2023/10/12 02:49:45;;;;;;;27.87;19.37;;;;;;;;;;5013864;28;20562;-64
2023/10/12 02:52:20;;;;;;;22.80;18.33;;;;;;;;;;5012333;28;20266;-64
2023/10/12 02:54:50;;;;;;;27.75;19.65;;;;;;;;;;5012465;28;20417;-64
2023/10/12 02:57:25;;;;;;;28.77;18.10;;;;;;;;;;5012441;28;20228;-64
2023/10/12 03:00:00;;;;;;;26.50;17.43;;;;;;;;;;5012143;28;20222;-64
2023/10/12 03:02:33;;;;;;;23.47;17.33;;;;;;;;;;5014281;28;20225;-65
2023/10/12 03:05:04;;;;;;;25.97;18.13;;;;;;;;;;5013539;28;20182;-65
2023/10/12 03:07:31;;;;;;;25.10;18.00;;;;;;;;;;5011994;28;20646;-66
2023/10/12 03:09:59;;;;;;;28.20;18.23;;;;;;;;;;5012331;28;20533;-67
2023/10/12 03:12:25;;;;;;;26.17;19.43;;;;;;;;;;5016461;28;20200;-67
2023/10/12 03:14:52;;;;;;;32.37;19.03;;;;;;;;;;5016845;28;20260;-67
2023/10/12 03:17:23;;;;;;;35.83;20.33;;;;;;;;;;5017467;28;20681;-67
2023/10/12 03:20:15;;;;;;;28.03;19.43;;;;;;;;;;5015140;28;20172;-67
2023/10/12 03:22:35;;;;;;;26.43;20.70;;;;;;;;;;5018173;28;20224;-67
2023/10/12 03:26:17;;;;;;;24.80;19.73;;;;;;;;;;5018120;28;20180;-66
2023/10/12 03:28:00;;;;;;;28.63;20.07;;;;;;;;;;5000808;28;20824;-67
2023/10/12 03:30:34;;;;;;;27.53;19.33;;;;;;;;;;5013152;28;20519;-66
2023/10/12 03:33:03;;;;;;;26.27;19.47;;;;;;;;;;5011666;28;20194;-66
2023/10/12 03:35:34;;;;;;;26.97;20.57;;;;;;;;;;5011614;28;20187;-66
2023/10/12 03:38:12;;;;;;;25.97;20.93;;;;;;;;;;5012943;28;20204;-66
2023/10/12 03:40:52;;;;;;;29.23;20.87;;;;;;;;;;5012827;28;20164;-66
2023/10/12 03:43:27;;;;;;;27.83;20.33;;;;;;;;;;5011251;28;20200;-65
2023/10/12 03:46:26;;;;;;;26.83;20.20;;;;;;;;;;5011318;28;20511;-66
2023/10/12 03:49:24;;;;;;;27.00;20.63;;;;;;;;;;5011684;28;20179;-66
2023/10/12 03:51:57;;;;;;;30.83;20.90;;;;;;;;;;5012665;28;20167;-67
2023/10/12 03:54:29;;;;;;;25.53;20.00;;;;;;;;;;5013187;28;20164;-67
2023/10/12 03:57:03;;;;;;;29.10;19.43;;;;;;;;;;5011170;28;20233;-67
2023/10/12 03:59:44;;;;;;;29.03;20.03;;;;;;;;;;5012808;28;20175;-65
2023/10/12 04:02:14;;;;;;;25.53;19.13;;;;;;;;;;5011238;28;20199;-65
2023/10/12 04:04:51;;;;;;;26.60;18.83;;;;;;;;;;5012545;28;20333;-65
2023/10/12 04:07:17;;;;;;;27.17;19.73;;;;;;;;;;5012292;28;20214;-65
2023/10/12 04:09:43;;;;;;;26.53;20.07;;;;;;;;;;5012471;28;20559;-65
2023/10/12 04:12:35;;;;;;;31.47;19.97;;;;;;;;;;5012549;28;20183;-65
2023/10/12 04:15:06;;;;;;;30.47;19.77;;;;;;;;;;5012779;28;20527;-64
2023/10/12 04:22:35;;;;;;;35.40;19.73;;;;;;;;;;5013156;28;20184;-65
2023/10/12 04:25:12;;;;;;;29.33;19.60;;;;;;;;;;5011437;28;20179;-64
2023/10/12 04:27:39;;;;;;;29.33;19.63;;;;;;;;;;5012761;28;20192;-65
2023/10/12 04:30:20;;;;;;;26.83;18.70;;;;;;;;;;5011180;28;20202;-64
2023/10/12 04:32:57;;;;;;;27.47;18.93;;;;;;;;;;5016013;28;20160;-65
2023/10/12 04:35:52;;;;;;;31.83;20.40;;;;;;;;;;5014660;28;20171;-65
2023/10/12 04:38:47;;;;;;;28.77;19.47;;;;;;;;;;5015774;28;20756;-64
2023/10/12 04:41:23;;;;;;;29.63;19.00;;;;;;;;;;5015896;28;20173;-64
2023/10/12 04:43:52;;;;;;;29.67;18.07;;;;;;;;;;5016320;28;20729;-65
2023/10/12 04:48:59;;;;;;;32.23;19.37;;;;;;;;;;5016112;28;20200;-65
2023/10/12 04:51:30;;;;;;;34.23;20.03;;;;;;;;;;5015787;28;20205;-66
2023/10/12 04:54:16;;;;;;;33.00;19.53;;;;;;;;;;5014393;28;20192;-66
2023/10/12 04:56:52;;;;;;;28.43;19.70;;;;;;;;;;5014171;28;20167;-66
2023/10/12 04:59:26;;;;;;;28.73;19.47;;;;;;;;;;5015679;28;20175;-66
2023/10/12 05:02:13;;;;;;;32.60;19.83;;;;;;;;;;5015935;28;20479;-65
2023/10/12 05:09:38;;;;;;;29.50;19.60;;;;;;;;;;5015920;28;20222;-67
2023/10/12 05:12:04;;;;;;;28.10;19.70;;;;;;;;;;5015663;28;20172;-68
2023/10/12 05:14:31;;;;;;;27.13;19.00;;;;;;;;;;5015517;28;20183;-65
2023/10/12 05:16:57;;;;;;;31.23;20.23;;;;;;;;;;5014099;28;20287;-65
2023/10/12 05:19:24;;;;;;;30.17;19.40;;;;;;;;;;5015331;28;20263;-65
2023/10/12 05:21:50;;;;;;;36.80;20.33;;;;;;;;;;5015869;28;20187;-65
2023/10/12 05:24:16;;;;;;;29.30;19.97;;;;;;;;;;5015485;28;20548;-66
2023/10/12 05:26:51;;;;;;;29.37;20.77;;;;;;;;;;5015353;28;20212;-65
2023/10/12 05:29:28;;;;;;;37.57;20.27;;;;;;;;;;5013929;28;20171;-65
2023/10/12 05:32:06;;;;;;;27.93;19.20;;;;;;;;;;5015256;28;20152;-65
2023/10/12 05:34:44;;;;;;;27.70;19.37;;;;;;;;;;5015118;28;20168;-65
2023/10/12 05:37:26;;;;;;;27.27;19.57;;;;;;;;;;5015010;28;20246;-65
2023/10/12 05:39:59;;;;;;;29.73;19.87;;;;;;;;;;5014823;28;20164;-65
2023/10/12 05:42:27;;;;;;;27.57;20.60;;;;;;;;;;5013048;28;20180;-65
2023/10/12 05:45:05;;;;;;;29.00;20.10;;;;;;;;;;5014735;28;20196;-64
2023/10/12 05:47:31;;;;;;;32.53;20.50;;;;;;;;;;5013443;28;20675;-65
2023/10/12 05:49:57;;;;;;;30.57;20.23;;;;;;;;;;5014846;28;20183;-64
2023/10/12 05:52:26;;;;;;;36.00;20.23;;;;;;;;;;5015044;28;20180;-65
2023/10/12 05:54:58;;;;;;;37.07;20.60;;;;;;;;;;5014957;28;20184;-65
2023/10/12 05:57:25;;;;;;;32.23;21.07;;;;;;;;;;5013349;28;20200;-65
2023/10/12 05:59:51;;;;;;;29.47;20.73;;;;;;;;;;5013461;28;20234;-65
2023/10/12 06:02:17;;;;;;;31.20;21.87;;;;;;;;;;5014396;28;20230;-65
2023/10/12 06:04:44;;;;;;;37.10;22.00;;;;;;;;;;5014399;28;20262;-66
2023/10/12 06:07:10;;;;;;;34.43;22.27;;;;;;;;;;5014094;28;20215;-65
2023/10/12 06:09:37;;;;;;;35.07;22.20;;;;;;;;;;5014447;28;20642;-65
2023/10/12 06:12:06;;;;;;;35.73;21.93;;;;;;;;;;5014520;28;20171;-65
2023/10/12 06:14:33;;;;;;;30.33;20.57;;;;;;;;;;5014159;28;20183;-66
2023/10/12 06:17:02;;;;;;;34.17;21.67;;;;;;;;;;5012952;28;20204;-65
2023/10/12 06:19:34;;;;;;;30.73;20.87;;;;;;;;;;5012956;28;20175;-66
2023/10/12 06:22:13;;;;;;;31.53;21.30;;;;;;;;;;5014383;28;20254;-66
2023/10/12 06:24:41;;;;;;;30.30;20.17;;;;;;;;;;5012821;28;20195;-66
2023/10/12 06:29:53;;;;;;;30.17;19.00;;;;;;;;;;5014725;28;20168;-65
2023/10/12 06:32:19;;;;;;;28.10;19.90;;;;;;;;;;5014229;28;20175;-66
2023/10/12 06:34:46;;;;;;;27.87;19.50;;;;;;;;;;5012703;28;20661;-66
2023/10/12 06:40:38;;;;;;;28.33;19.07;;;;;;;;;;4953550;29;20329;-66
2023/10/12 06:45:46;;;;;;;28.33;17.47;;;;;;;;;;4994423;28;20190;-66
2023/10/12 06:51:06;;;;;;;27.13;18.07;;;;;;;;;;5015600;28;20633;-67
2023/10/12 06:53:36;;;;;;;31.93;18.93;;;;;;;;;;5021014;28;20571;-66
2023/10/12 06:58:41;;;;;;;28.73;18.43;;;;;;;;;;5023564;28;20206;-66
2023/10/12 07:03:53;;;;;;;33.77;24.37;;;;;;;;;;5014590;28;20289;-66
2023/10/12 07:06:19;;;;;;;25.53;19.83;;;;;;;;;;5014148;28;20627;-66
2023/10/12 07:08:51;;;;;;;29.03;21.70;;;;;;;;;;5012599;28;20270;-66
2023/10/12 07:11:17;;;;;;;27.93;19.70;;;;;;;;;;5014318;28;20621;-66
2023/10/12 07:13:45;;;;;;;26.70;19.07;;;;;;;;;;5013960;28;20644;-66
2023/10/12 07:16:15;;;;;;;29.20;18.87;;;;;;;;;;5014871;28;20251;-66
2023/10/12 07:18:44;;;;;;;35.70;20.47;;;;;;;;;;5016719;28;20200;-66
2023/10/12 07:21:22;;;;;;;28.70;19.70;;;;;;;;;;5018124;28;20249;-66
2023/10/12 07:23:56;;;;;;;26.37;18.90;;;;;;;;;;5019656;28;20337;-66
2023/10/12 07:26:23;;;;;;;29.80;19.37;;;;;;;;;;5014466;28;20159;-66
2023/10/12 07:28:50;;;;;;;30.90;17.83;;;;;;;;;;5012325;28;20195;-66
2023/10/12 07:34:13;;;;;;;33.17;18.27;;;;;;;;;;5012996;28;20258;-67
2023/10/12 07:39:27;;;;;;;24.53;17.07;;;;;;;;;;5013137;28;20194;-67
2023/10/12 07:41:54;;;;;;;28.20;18.37;;;;;;;;;;5011751;28;20176;-67
2023/10/12 07:44:36;;;;;;;24.07;15.83;;;;;;;;;;5012909;28;20771;-66
2023/10/12 07:47:04;;;;;;;28.87;18.07;;;;;;;;;;5013235;28;20196;-66
2023/10/12 07:52:05;;;;;;;22.67;18.23;;;;;;;;;;5013336;28;20187;-67
2023/10/12 07:57:15;;;;;;;20.67;15.67;;;;;;;;;;5013100;28;20200;-67
2023/10/12 08:02:43;;;;;;;30.40;16.60;;;;;;;;;;5012962;28;20629;-67
2023/10/12 08:10:30;;;;;;;16.37;13.60;;;;;;;;;;5017039;28;20199;-67
2023/10/12 08:12:56;;;;;;;23.30;14.83;;;;;;;;;;5016511;28;20201;-67
2023/10/12 08:15:49;;;;;;;21.17;14.50;;;;;;;;;;5015322;28;20175;-67
2023/10/12 08:18:50;;;;;;;21.07;14.53;;;;;;;;;;5016435;28;20210;-67
2023/10/12 08:21:00;;;;;;;20.80;14.57;;;;;;;;;;5016195;28;20241;-67
2023/10/12 08:23:26;;;;;;;20.20;14.37;;;;;;;;;;5016478;28;20544;-67
2023/10/12 08:25:57;;;;;;;24.53;13.90;;;;;;;;;;5015164;28;20221;-67
2023/10/12 08:28:25;;;;;;;21.07;14.43;;;;;;;;;;5014952;28;20648;-65
2023/10/12 08:31:00;;;;;;;20.63;14.47;;;;;;;;;;5015010;28;20172;-67
2023/10/12 08:38:40;;;;;;;23.93;15.50;;;;;;;;;;5016311;28;20278;-67
2023/10/12 08:41:36;;;;;;;18.73;14.13;;;;;;;;;;5016540;28;20212;-67
2023/10/12 08:44:05;;;;;;;23.27;15.53;;;;;;;;;;5014627;28;20196;-66
2023/10/12 08:52:04;;;;;;;24.00;15.50;;;;;;;;;;5016296;28;20633;-67
2023/10/12 08:54:37;;;;;;;29.20;15.17;;;;;;;;;;5016327;28;20243;-67
2023/10/12 08:57:03;;;;;;;20.10;14.53;;;;;;;;;;5014496;28;20246;-67
2023/10/12 08:59:34;;;;;;;20.50;13.77;;;;;;;;;;5014342;28;20187;-67
2023/10/12 09:02:17;;;;;;;20.17;15.07;;;;;;;;;;5016043;28;20156;-67
2023/10/12 09:04:43;;;;;;;19.93;14.43;;;;;;;;;;5015585;28;20561;-67
2023/10/12 09:07:16;;;;;;;24.00;14.83;;;;;;;;;;5014413;28;20647;-67
2023/10/12 09:10:02;;;;;;;28.07;14.47;;;;;;;;;;5030511;23;20183;-75
2023/10/12 09:12:29;;;;;;;22.63;15.17;;;;;;;;;;5000003;28;20184;-73
2023/10/12 09:14:55;;;;;;;18.97;14.20;;;;;;;;;;5013532;28;20588;-73
2023/10/12 09:17:30;;;;;;;20.43;14.00;;;;;;;;;;4997249;28;20498;-73
2023/10/12 09:20:28;;;;;;;18.93;12.60;;;;;;;;;;5013351;28;20223;-72
2023/10/12 09:22:57;;;;;;;21.57;12.93;;;;;;;;;;5012624;28;20177;-72
2023/10/12 09:25:59;;;;;;;17.77;12.70;;;;;;;;;;4997515;28;20173;-73
2023/10/12 09:28:14;;;;;;;18.13;13.07;;;;;;;;;;4997668;28;20624;-72
2023/10/12 09:30:44;;;;;;;20.03;13.97;;;;;;;;;;5012665;28;20196;-72
2023/10/12 09:33:44;;;;;;;20.00;12.97;;;;;;;;;;5012839;28;20176;-72
2023/10/12 09:36:00;;;;;;;18.17;13.37;;;;;;;;;;4997826;28;20190;-73
2023/10/12 09:38:30;;;;;;;19.40;12.93;;;;;;;;;;4997900;28;20177;-72
2023/10/12 09:40:59;;;;;;;21.90;12.37;;;;;;;;;;5012535;28;20200;-72
2023/10/12 09:43:25;;;;;;;19.90;15.23;;;;;;;;;;4997203;28;20257;-72
2023/10/12 09:45:58;;;;;;;20.30;12.77;;;;;;;;;;4997058;28;20184;-72
2023/10/12 09:48:29;;;;;;;21.17;13.70;;;;;;;;;;5011548;28;20267;-72
2023/10/12 09:50:56;;;;;;;22.33;13.43;;;;;;;;;;4997070;28;20246;-71
2023/10/12 09:53:30;;;;;;;20.63;12.50;;;;;;;;;;4996586;28;20201;-71
2023/10/12 09:56:11;;;;;;;20.73;13.03;;;;;;;;;;5011579;28;20172;-70
2023/10/12 09:58:45;;;;;;;19.57;12.57;;;;;;;;;;5011393;28;20634;-70
2023/10/12 10:01:22;;;;;;;16.37;11.27;;;;;;;;;;5011429;28;20204;-70
2023/10/12 10:03:49;;;;;;;22.33;11.40;;;;;;;;;;4996721;28;20207;-70
2023/10/12 10:09:18;;;;;;;17.80;10.97;;;;;;;;;;4998105;28;20605;-71
2023/10/12 10:11:45;;;;;;;26.23;11.60;;;;;;;;;;5012889;28;20593;-71
2023/10/12 10:14:17;;;;;;;14.53;9.67;;;;;;;;;;5012361;28;20191;-70
2023/10/12 10:16:46;;;;;;;17.17;10.30;;;;;;;;;;5012508;28;20620;-70
2023/10/12 10:19:17;;;;;;;13.90;10.40;;;;;;;;;;5012181;28;20184;-71
2023/10/12 10:21:52;;;;;;;18.60;9.93;;;;;;;;;;5001659;28;20268;-70
2023/10/12 10:24:25;;;;;;;15.93;10.10;;;;;;;;;;5001541;28;20192;-71
2023/10/12 10:26:58;;;;;;;18.03;10.07;;;;;;;;;;4998272;28;20216;-71
2023/10/12 10:30:08;;;;;;;13.70;9.20;;;;;;;;;;5012396;28;20287;-71
2023/10/12 10:32:38;;;;;;;13.67;8.70;;;;;;;;;;4956274;29;20177;-71
2023/10/12 10:35:18;;;;;;;13.90;8.83;;;;;;;;;;4956534;29;20517;-70
2023/10/12 10:37:57;;;;;;;12.60;8.60;;;;;;;;;;4974126;28;20192;-71
2023/10/12 10:40:39;;;;;;;16.13;8.70;;;;;;;;;;4996379;28;20199;-70
2023/10/12 10:43:08;;;;;;;17.60;9.43;;;;;;;;;;4996761;28;20160;-71
2023/10/12 10:45:37;;;;;;;16.23;9.53;;;;;;;;;;5011382;28;20176;-71
2023/10/12 10:48:04;;;;;;;21.43;10.60;;;;;;;;;;4996032;28;20203;-70
2023/10/12 10:50:33;;;;;;;19.57;10.37;;;;;;;;;;4996106;28;20196;-70
2023/10/12 10:53:00;;;;;;;21.40;10.03;;;;;;;;;;5011180;28;20185;-70
2023/10/12 10:55:31;;;;;;;13.13;9.13;;;;;;;;;;5010765;28;20214;-70
2023/10/12 10:57:57;;;;;;;17.20;9.47;;;;;;;;;;4996341;28;20161;-70
2023/10/12 11:00:33;;;;;;;15.20;10.10;;;;;;;;;;4996242;28;20738;-70
2023/10/12 11:03:05;;;;;;;17.87;10.33;;;;;;;;;;4995508;28;20214;-70
2023/10/12 11:05:31;;;;;;;25.27;10.50;;;;;;;;;;4995395;28;20581;-70
2023/10/12 11:08:15;;;;;;;15.20;10.20;;;;;;;;;;4995834;28;20709;-70
2023/10/12 11:11:25;;;;;;;13.90;10.50;;;;;;;;;;5011154;28;20220;-70
2023/10/12 11:13:31;;;;;;;14.73;9.63;;;;;;;;;;4995882;28;20193;-70
2023/10/12 11:15:57;;;;;;;16.57;9.73;;;;;;;;;;5010157;28;20184;-70
2023/10/12 11:18:24;;;;;;;15.83;9.27;;;;;;;;;;4995847;28;20600;-71
2023/10/12 11:20:57;;;;;;;18.93;10.63;;;;;;;;;;4995242;28;20622;-71
2023/10/12 11:23:23;;;;;;;17.40;10.43;;;;;;;;;;4995668;28;20216;-70
2023/10/12 11:25:49;;;;;;;17.63;9.83;;;;;;;;;;4995199;28;20188;-71
2023/10/12 11:28:26;;;;;;;15.73;10.57;;;;;;;;;;4994868;28;20300;-71
2023/10/12 11:31:01;;;;;;;21.70;10.80;;;;;;;;;;4994758;28;20222;-71
2023/10/12 11:33:27;;;;;;;17.33;9.83;;;;;;;;;;4995291;28;20533;-71
2023/10/12 11:35:54;;;;;;;17.17;9.97;;;;;;;;;;4995076;28;20203;-72
2023/10/12 11:38:21;;;;;;;19.63;10.37;;;;;;;;;;4995297;28;20184;-72
2023/10/12 11:40:52;;;;;;;16.77;10.30;;;;;;;;;;5009584;28;20625;-71
2023/10/12 11:43:19;;;;;;;19.87;10.40;;;;;;;;;;5008034;28;20193;-73
2023/10/12 11:46:01;;;;;;;21.43;10.17;;;;;;;;;;5031147;28;20164;-71
2023/10/12 11:48:27;;;;;;;21.43;10.77;;;;;;;;;;5021293;28;20234;-71
2023/10/12 11:50:54;;;;;;;21.60;10.27;;;;;;;;;;5014385;28;20199;-70
2023/10/12 11:53:20;;;;;;;16.17;10.07;;;;;;;;;;5010184;28;20275;-70
2023/10/12 11:55:49;;;;;;;12.43;9.93;;;;;;;;;;4995171;28;20675;-70
2023/10/12 11:58:19;;;;;;;21.40;10.70;;;;;;;;;;4994711;28;20323;-69
2023/10/12 12:00:48;;;;;;;23.50;10.83;;;;;;;;;;4994628;28;20279;-70
2023/10/12 12:03:15;;;;;;;16.53;11.40;;;;;;;;;;5010154;28;20214;-70
2023/10/12 12:05:41;;;;;;;22.27;11.47;;;;;;;;;;5009648;28;20177;-70
2023/10/12 12:08:12;;;;;;;17.70;10.93;;;;;;;;;;5009928;28;20647;-69
2023/10/12 12:10:38;;;;;;;19.50;10.10;;;;;;;;;;4994831;28;20231;-70
2023/10/12 12:13:12;;;;;;;18.93;11.13;;;;;;;;;;5009547;28;20231;-70
2023/10/12 12:15:43;;;;;;;21.30;10.53;;;;;;;;;;5009675;28;20172;-70
2023/10/12 12:18:21;;;;;;;19.23;11.73;;;;;;;;;;4994976;28;20231;-70
2023/10/12 12:20:47;;;;;;;19.43;10.53;;;;;;;;;;5010924;28;20227;-70
2023/10/12 12:23:14;;;;;;;19.00;10.83;;;;;;;;;;5010047;28;20208;-70
2023/10/12 12:25:41;;;;;;;14.67;9.97;;;;;;;;;;5010040;28;20191;-70
2023/10/12 12:28:07;;;;;;;13.73;9.67;;;;;;;;;;4994860;28;20751;-70
2023/10/12 12:30:46;;;;;;;15.50;9.97;;;;;;;;;;5015788;28;20228;-70
2023/10/12 12:33:19;;;;;;;17.83;10.53;;;;;;;;;;5001529;28;20160;-70
2023/10/12 12:35:46;;;;;;;17.90;10.10;;;;;;;;;;4998411;28;20542;-71
2023/10/12 12:40:53;;;;;;;13.57;8.73;;;;;;;;;;4995084;28;20255;-70
2023/10/12 12:43:20;;;;;;;12.33;8.33;;;;;;;;;;5009461;28;20716;-70
2023/10/12 12:45:46;;;;;;;13.10;8.53;;;;;;;;;;5009829;28;20185;-70
2023/10/12 12:48:12;;;;;;;13.60;8.17;;;;;;;;;;5009835;28;20557;-72
2023/10/12 12:50:38;;;;;;;14.00;8.93;;;;;;;;;;5009753;28;20295;-71
2023/10/12 12:53:07;;;;;;;12.07;8.20;;;;;;;;;;5012608;28;20183;-71
2023/10/12 12:55:38;;;;;;;11.77;7.90;;;;;;;;;;4998932;28;20184;-72
2023/10/12 12:58:04;;;;;;;15.50;9.30;;;;;;;;;;5012644;28;20669;-71
2023/10/12 13:00:33;;;;;;;11.80;8.33;;;;;;;;;;5012577;28;20208;-70
2023/10/12 13:03:00;;;;;;;13.20;8.70;;;;;;;;;;4997823;28;20195;-71
2023/10/12 13:05:28;;;;;;;11.73;8.03;;;;;;;;;;4997901;28;20530;-70
2023/10/12 13:07:54;;;;;;;13.83;8.63;;;;;;;;;;4998699;28;20184;-71
2023/10/12 13:10:21;;;;;;;14.57;8.50;;;;;;;;;;5013046;28;20219;-71
2023/10/12 13:12:47;;;;;;;15.93;7.90;;;;;;;;;;5013023;28;20185;-72
2023/10/12 13:15:14;;;;;;;12.90;7.97;;;;;;;;;;4999837;28;20176;-71
2023/10/12 13:17:41;;;;;;;12.80;8.43;;;;;;;;;;4998207;28;20269;-71
2023/10/12 13:20:28;;;;;;;13.13;8.33;;;;;;;;;;4998205;28;20224;-71
2023/10/12 13:22:54;;;;;;;12.50;8.63;;;;;;;;;;4998182;28;20157;-71
2023/10/12 13:25:21;;;;;;;17.83;8.50;;;;;;;;;;5012831;28;20177;-71
2023/10/12 13:27:51;;;;;;;15.47;8.73;;;;;;;;;;5012985;28;20676;-71
2023/10/12 13:30:17;;;;;;;12.90;8.00;;;;;;;;;;4997240;28;20694;-70
2023/10/12 13:32:44;;;;;;;14.70;8.07;;;;;;;;;;5013838;28;20182;-70
2023/10/12 13:35:31;;;;;;;20.73;9.07;;;;;;;;;;5011944;28;20177;-70
2023/10/12 13:38:04;;;;;;;13.50;8.87;;;;;;;;;;4996815;28;20163;-71
2023/10/12 13:40:30;;;;;;;15.80;9.30;;;;;;;;;;4997156;28;20212;-72
2023/10/12 13:43:15;;;;;;;16.80;9.13;;;;;;;;;;4997234;28;20180;-71
2023/10/12 13:45:52;;;;;;;16.33;8.03;;;;;;;;;;5012598;28;20205;-71
2023/10/12 13:48:20;;;;;;;14.13;8.20;;;;;;;;;;4997255;28;20180;-71
2023/10/12 13:50:57;;;;;;;9.23;8.30;;;;;;;;;;4996885;28;20713;-71
2023/10/12 13:53:24;;;;;;;17.00;9.60;;;;;;;;;;5011955;28;20173;-71
2023/10/12 13:55:50;;;;;;;15.73;10.33;;;;;;;;;;5012432;28;20232;-71
2023/10/12 13:58:16;;;;;;;18.37;9.60;;;;;;;;;;4997073;28;20671;-71
2023/10/12 14:00:43;;;;;;;15.77;9.80;;;;;;;;;;4997120;28;20188;-70
2023/10/12 14:03:13;;;;;;;15.07;9.60;;;;;;;;;;4996499;28;20222;-71
2023/10/12 14:05:40;;;;;;;16.47;8.63;;;;;;;;;;5012072;28;20173;-71
2023/10/12 14:08:08;;;;;;;16.80;9.27;;;;;;;;;;4997060;28;20692;-71
2023/10/12 14:10:38;;;;;;;13.73;8.50;;;;;;;;;;5011298;28;20216;-71
2023/10/12 14:13:03;;;;;;;17.83;8.80;;;;;;;;;;4996101;28;20665;-71
2023/10/12 14:15:29;;;;;;;16.97;9.10;;;;;;;;;;4996348;28;20201;-71
2023/10/12 14:17:56;;;;;;;12.40;8.47;;;;;;;;;;4995987;28;20207;-71
2023/10/12 14:20:28;;;;;;;15.13;9.30;;;;;;;;;;4995908;28;20192;-71
2023/10/12 14:22:58;;;;;;;19.20;10.13;;;;;;;;;;5003349;28;20200;-71
2023/10/12 14:25:29;;;;;;;13.17;9.27;;;;;;;;;;5015799;28;20200;-71
2023/10/12 14:27:59;;;;;;;13.77;9.07;;;;;;;;;;5028886;28;20562;-73
2023/10/12 14:30:28;;;;;;;17.00;9.93;;;;;;;;;;5005947;28;20196;-72
2023/10/12 14:32:55;;;;;;;19.17;9.70;;;;;;;;;;5017095;28;20677;-70
2023/10/12 14:35:21;;;;;;;16.33;10.23;;;;;;;;;;4999421;28;20647;-70
2023/10/12 14:37:47;;;;;;;18.53;10.60;;;;;;;;;;5014083;28;20192;-71
2023/10/12 14:40:18;;;;;;;15.03;10.03;;;;;;;;;;5013607;28;20210;-70
2023/10/12 14:42:44;;;;;;;16.63;9.70;;;;;;;;;;5006920;28;20160;-71
2023/10/12 14:45:15;;;;;;;15.10;10.00;;;;;;;;;;5025405;28;20212;-70
2023/10/12 14:47:44;;;;;;;15.40;10.20;;;;;;;;;;5026913;28;20678;-70
2023/10/12 14:50:16;;;;;;;13.47;9.60;;;;;;;;;;5025471;28;20211;-70
2023/10/12 14:52:42;;;;;;;11.67;9.50;;;;;;;;;;5026876;28;20169;-70
2023/10/12 14:55:10;;;;;;;13.93;8.93;;;;;;;;;;5008843;28;20184;-71
2023/10/12 14:57:38;;;;;;;14.37;8.77;;;;;;;;;;5023395;28;20195;-71
2023/10/12 15:00:08;;;;;;;13.80;8.67;;;;;;;;;;5022164;28;20235;-70
2023/10/12 15:02:35;;;;;;;13.13;8.50;;;;;;;;;;5009372;28;20187;-72
2023/10/12 15:05:01;;;;;;;13.23;8.53;;;;;;;;;;5021482;28;20212;-71
2023/10/12 15:07:27;;;;;;;13.40;7.70;;;;;;;;;;5021862;28;20196;-70
2023/10/12 15:09:53;;;;;;;15.77;8.40;;;;;;;;;;5003808;28;20204;-71
2023/10/12 15:12:19;;;;;;;12.53;7.63;;;;;;;;;;5007120;28;20169;-71
2023/10/12 15:14:47;;;;;;;10.63;8.03;;;;;;;;;;5005593;28;20319;-71
2023/10/12 15:17:14;;;;;;;10.07;7.10;;;;;;;;;;5008437;28;20173;-71
2023/10/12 15:19:40;;;;;;;15.27;7.70;;;;;;;;;;5021836;28;20204;-71
2023/10/12 15:22:06;;;;;;;11.13;7.40;;;;;;;;;;5008164;28;20230;-71
2023/10/12 15:24:40;;;;;;;17.53;11.33;;;;;;;;;;5025436;28;20267;-72
2023/10/12 15:27:06;;;;;;;55.93;32.53;;;;;;;;;;5010947;28;20246;-71
2023/10/12 15:29:33;;;;;;;52.87;30.83;;;;;;;;;;5008287;28;20181;-72
2023/10/12 15:31:59;;;;;;;35.57;25.20;;;;;;;;;;5005803;28;20658;-71
2023/10/12 15:34:27;;;;;;;28.27;18.27;;;;;;;;;;5007170;28;20191;-72
2023/10/12 15:36:53;;;;;;;10.17;7.67;;;;;;;;;;5008601;28;20714;-71
2023/10/12 15:39:20;;;;;;;21.83;16.13;;;;;;;;;;5006397;28;20180;-71
2023/10/12 15:41:46;;;;;;;15.70;11.50;;;;;;;;;;5021882;28;20219;-71
2023/10/12 15:44:12;;;;;;;11.33;7.20;;;;;;;;;;5022135;28;20212;-71
2023/10/12 15:46:38;;;;;;;10.97;6.60;;;;;;;;;;5018271;28;20183;-72
2023/10/12 15:49:06;;;;;;;12.93;7.30;;;;;;;;;;5001816;28;20172;-71
2023/10/12 15:51:32;;;;;;;11.53;7.57;;;;;;;;;;5001878;28;20276;-70
2023/10/12 15:53:58;;;;;;;10.27;7.97;;;;;;;;;;5007923;28;20184;-72
2023/10/12 15:56:25;;;;;;;12.03;7.43;;;;;;;;;;5023737;28;20181;-70
2023/10/12 15:58:52;;;;;;;15.70;10.10;;;;;;;;;;5007826;28;20180;-70
2023/10/12 16:01:18;;;;;;;20.53;15.40;;;;;;;;;;5023397;28;20228;-70
2023/10/12 16:03:44;;;;;;;16.13;10.77;;;;;;;;;;5007581;28;20303;-69
2023/10/12 16:06:11;;;;;;;18.17;13.13;;;;;;;;;;5006582;28;20173;-70
2023/10/12 16:08:37;;;;;;;17.43;10.40;;;;;;;;;;5022943;28;20572;-70
2023/10/12 16:11:03;;;;;;;12.87;9.33;;;;;;;;;;5023546;28;20284;-69
2023/10/12 16:13:29;;;;;;;16.17;10.50;;;;;;;;;;5023244;28;20193;-70
2023/10/12 16:15:55;;;;;;;12.83;9.90;;;;;;;;;;5005046;28;20227;-72
2023/10/12 16:18:21;;;;;;;20.50;14.97;;;;;;;;;;5022014;28;20177;-70